Paradis, LA (70080)

10:06 AM CDT on August 04, 2015 (GMT -0500)
Kirk Street | | Change Station
CLOSE
Current Station
Personal Weather Station
Location: Paradis, LA
Elevation: 10 ft
Nearby Weather Stations

Elev 10 ft 29.88 °N, 90.43 °W | Updated 8 seconds ago

Partly Cloudy
Partly Cloudy
85.3 °F
Feels Like 89 °F
N
5.8
Wind Variable Wind from NNW
Gusts 5.8 mph

Today
High -- | Low -- °F
--% Chance of Precip.
Yesterday
High -- | Low -- °F
Precip. -- in
6:22 AM 7:52 PM
Waning Gibbous, 77% visible
Pressure 30.01 in
Visibility 10.0 miles
Clouds Few 3000 ft
Scattered Clouds 5500 ft
Mostly Cloudy 8500 ft
Mostly Cloudy 15000 ft
Mostly Cloudy 25000 ft
Heat Index 89 °F
Dew Point 69 °F
Humidity 58%
Rainfall 0.00 in
Snow Depth Not available.
UV 4 out of 12
Pollen 3.10 out of 12
Air Quality Not available.
Flu Activity Not available.
METAR KMSY 041453Z 17010KT 10SM FEW030 SCT055 BKN085 BKN150 BKN250 28/23 A3000 RMK AO2 SLP163 TCU DSNT NW T02830228 53014

More Conditions Fewer Conditions

Pressure 30.01 in
Visibility 10.0 miles
Clouds Few 3000 ft
Scattered Clouds 5500 ft
Mostly Cloudy 8500 ft
Mostly Cloudy 15000 ft
Mostly Cloudy 25000 ft
Heat Index 89 °F
Dew Point 69 °F
Humidity 58%
Rainfall 0.00 in
Snow Depth Not available.
UV 4 out of 12
Pollen 3.10 out of 12
Air Quality Not available.
Flu Activity Not available.
METAR KMSY 041453Z 17010KT 10SM FEW030 SCT055 BKN085 BKN150 BKN250 28/23 A3000 RMK AO2 SLP163 TCU DSNT NW T02830228 53014

More Conditions Fewer Conditions

10-Day Weather Forecast

×

Almanac

Astronomy

Aug. 04, 2015 Rise Set
Actual Time
Civil Twilight
Nautical Twilight
Astronomical Twilight
Moon
Length of Visible Light
Length of Day
Tomorrow will be .
, % of the Moon is Illuminated

Today's Extremes

State Highs State Lows

Community

WunderPhotos

Upload Photos

1,843,908 photos uploaded!

WunderBlogs® & News

Nearby

Air Quality

  Air Quality AQ Index Pollutant
Not available.

Snow Depth

Station Depth Elevation

Earthquake Activity

City Distance Mag. Time & Date
Minimum magnitude displayed is 2.5.

Coastal Water Temperatures

Place Temperature

Stations

Nearby Weather Stations

Station Location Temp. Windchill Dew Point Humidity Wind Precip. Elev Updated Type